createdAt,value
2023-05-09T00:00:29.298Z,9.90
2023-05-09T00:03:15.482Z,9.69
2023-05-09T00:06:02.522Z,9.69
2023-05-09T00:08:48.643Z,9.76
2023-05-09T00:11:34.900Z,9.84
2023-05-09T00:14:20.499Z,9.95
2023-05-09T00:17:07.925Z,9.81
2023-05-09T00:19:53.929Z,9.87
2023-05-09T00:22:41.230Z,9.80
2023-05-09T00:25:27.113Z,9.89
2023-05-09T00:28:13.124Z,9.91
2023-05-09T00:30:58.633Z,9.91
2023-05-09T00:33:45.134Z,9.53
2023-05-09T00:36:32.241Z,9.47
2023-05-09T00:39:18.400Z,9.16
2023-05-09T00:42:04.869Z,8.92
2023-05-09T00:44:53.606Z,9.04
2023-05-09T00:47:39.771Z,9.40
2023-05-09T00:50:26.297Z,9.24
2023-05-09T00:53:13.003Z,9.16
2023-05-09T00:56:00.822Z,9.09
2023-05-09T00:58:46.384Z,8.99
2023-05-09T01:01:32.927Z,8.83
2023-05-09T01:04:18.937Z,8.80
2023-05-09T01:07:12.065Z,8.41
2023-05-09T01:10:22.144Z,8.62
2023-05-09T01:13:32.571Z,8.83
2023-05-09T01:16:30.166Z,8.69
2023-05-09T01:19:22.609Z,8.51
2023-05-09T01:22:09.502Z,8.65
2023-05-09T01:25:29.723Z,8.94
2023-05-09T01:28:49.248Z,9.07
2023-05-09T01:31:38.748Z,9.35
2023-05-09T01:34:29.414Z,9.53
2023-05-09T01:37:16.530Z,9.59
2023-05-09T01:40:13.519Z,9.46
2023-05-09T01:43:06.423Z,9.52
2023-05-09T01:45:52.753Z,9.25
2023-05-09T01:48:39.543Z,9.09
2023-05-09T01:51:27.228Z,8.71
2023-05-09T01:54:13.796Z,8.67
2023-05-09T01:57:00.066Z,8.60
2023-05-09T01:59:48.215Z,8.20
2023-05-09T02:02:34.107Z,8.34
2023-05-09T02:05:21.696Z,8.45
2023-05-09T02:08:08.920Z,8.67
2023-05-09T02:10:55.162Z,8.59
2023-05-09T02:13:41.208Z,8.82
2023-05-09T02:16:28.044Z,9.03
2023-05-09T02:19:14.472Z,8.98
2023-05-09T02:22:00.727Z,9.39
2023-05-09T02:24:46.344Z,9.42
2023-05-09T02:27:34.230Z,9.45
2023-05-09T02:30:25.279Z,9.47
2023-05-09T02:33:12.811Z,9.57
2023-05-09T02:35:59.003Z,9.72
2023-05-09T02:38:46.087Z,9.95
2023-05-09T02:41:32.114Z,9.86
2023-05-09T02:44:17.963Z,9.80
2023-05-09T02:47:05.319Z,9.50
2023-05-09T02:49:51.728Z,9.41
2023-05-09T02:52:37.893Z,8.98
2023-05-09T02:55:24.635Z,8.65
2023-05-09T02:58:14.669Z,8.62
2023-05-09T03:01:02.935Z,8.59
2023-05-09T03:03:48.903Z,8.77
2023-05-09T03:06:38.965Z,8.81
2023-05-09T03:09:24.739Z,8.76
2023-05-09T03:12:11.008Z,8.72
2023-05-09T03:14:57.095Z,8.39
2023-05-09T03:17:43.468Z,8.06
2023-05-09T03:20:30.163Z,8.08
2023-05-09T03:23:16.205Z,8.13
2023-05-09T03:26:01.841Z,8.28
2023-05-09T03:28:49.112Z,8.02
2023-05-09T03:31:35.183Z,7.76
2023-05-09T03:34:21.381Z,7.50
2023-05-09T03:37:07.588Z,7.41
2023-05-09T03:39:57.802Z,7.95
2023-05-09T03:42:44.838Z,8.26
2023-05-09T03:45:30.708Z,8.43
2023-05-09T03:48:17.124Z,8.43
2023-05-09T03:51:09.888Z,8.39
2023-05-09T03:54:00.115Z,8.29
2023-05-09T03:56:45.845Z,8.02
2023-05-09T03:59:32.420Z,8.31
2023-05-09T04:02:19.451Z,8.28
2023-05-09T04:05:06.687Z,8.26
2023-05-09T04:07:53.089Z,8.01
2023-05-09T04:10:39.548Z,7.87
2023-05-09T04:13:26.003Z,7.86
2023-05-09T04:16:12.644Z,8.26
2023-05-09T04:18:58.760Z,8.56
2023-05-09T04:21:45.036Z,8.84
2023-05-09T04:24:31.198Z,9.12
2023-05-09T04:27:17.433Z,9.56
2023-05-09T04:30:03.946Z,9.69
2023-05-09T04:32:50.951Z,9.85
2023-05-09T04:35:38.338Z,10.11
2023-05-09T04:38:24.684Z,10.44
2023-05-09T04:41:11.132Z,10.60
2023-05-09T04:43:57.496Z,10.85
2023-05-09T04:46:45.914Z,11.02
2023-05-09T04:49:32.347Z,11.20
2023-05-09T04:52:18.048Z,11.37
2023-05-09T04:55:04.586Z,11.69
2023-05-09T04:57:55.496Z,11.67
2023-05-09T05:00:41.543Z,11.99
2023-05-09T05:03:28.832Z,12.07
2023-05-09T05:06:15.139Z,11.96
2023-05-09T05:09:01.870Z,12.13
2023-05-09T05:11:59.536Z,12.08
2023-05-09T05:14:48.675Z,12.18
2023-05-09T05:17:38.898Z,12.48
2023-05-09T05:20:26.246Z,12.61
2023-05-09T05:23:12.541Z,12.74
2023-05-09T05:25:58.768Z,12.81
2023-05-09T05:28:46.025Z,12.96
2023-05-09T05:31:32.744Z,13.07
2023-05-09T05:34:19.280Z,13.00
2023-05-09T05:37:05.750Z,13.10
2023-05-09T05:39:52.306Z,13.21
2023-05-09T05:42:38.505Z,13.32
2023-05-09T05:45:25.138Z,13.41
2023-05-09T05:48:13.673Z,13.36
2023-05-09T05:51:00.148Z,13.68
2023-05-09T05:53:49.430Z,13.52
2023-05-09T05:56:35.954Z,13.78
2023-05-09T05:59:21.884Z,13.81
2023-05-09T06:02:08.959Z,13.67
2023-05-09T06:04:56.181Z,13.77
2023-05-09T06:07:44.290Z,13.88
2023-05-09T06:10:30.174Z,13.98
2023-05-09T06:13:16.591Z,14.25
2023-05-09T06:16:18.064Z,14.26
2023-05-09T06:19:07.383Z,14.31
2023-05-09T06:21:52.918Z,14.38
2023-05-09T06:24:40.366Z,14.51
2023-05-09T06:27:27.951Z,14.59
2023-05-09T06:30:25.554Z,14.74
2023-05-09T06:33:12.936Z,14.61
2023-05-09T06:36:00.402Z,14.87
2023-05-09T06:38:46.387Z,14.90
2023-05-09T06:41:33.238Z,15.04
2023-05-09T06:44:19.293Z,15.10
2023-05-09T06:47:05.689Z,15.14
2023-05-09T06:49:51.903Z,15.27
2023-05-09T06:52:37.877Z,15.21
2023-05-09T06:55:23.494Z,15.30
2023-05-09T06:58:09.299Z,15.34
2023-05-09T07:00:54.929Z,15.29
2023-05-09T07:03:41.077Z,15.34
2023-05-09T07:06:27.172Z,15.18
2023-05-09T07:09:28.911Z,15.33
2023-05-09T07:12:14.720Z,15.35
2023-05-09T07:15:01.475Z,15.60
2023-05-09T07:17:47.919Z,15.65
2023-05-09T07:20:34.606Z,15.67
2023-05-09T07:23:21.302Z,15.66
2023-05-09T07:26:07.909Z,15.67
2023-05-09T07:28:54.499Z,15.72
2023-05-09T07:31:40.659Z,15.80
2023-05-09T07:34:26.838Z,15.81
2023-05-09T07:37:14.541Z,15.89
2023-05-09T07:40:02.129Z,16.03
2023-05-09T07:42:50.126Z,16.11
2023-05-09T07:45:36.622Z,16.09
2023-05-09T07:48:23.323Z,15.79
2023-05-09T07:51:09.322Z,15.86
2023-05-09T07:53:56.659Z,15.83
2023-05-09T07:56:42.433Z,15.77
2023-05-09T07:59:29.233Z,15.77
2023-05-09T08:02:15.860Z,15.65
2023-05-09T08:05:02.291Z,15.72
2023-05-09T08:07:48.929Z,15.66
2023-05-09T08:10:35.244Z,15.77
2023-05-09T08:13:22.625Z,15.84
2023-05-09T08:16:08.956Z,15.86
2023-05-09T08:18:55.264Z,15.72
2023-05-09T08:21:41.393Z,15.77
2023-05-09T08:24:27.015Z,15.83
2023-05-09T08:27:14.134Z,15.83
2023-05-09T08:30:00.484Z,15.81
2023-05-09T08:32:46.457Z,15.72
2023-05-09T08:35:32.719Z,15.63
2023-05-09T08:38:19.518Z,16.09
2023-05-09T08:41:05.688Z,16.16
2023-05-09T08:43:52.650Z,16.01
2023-05-09T08:46:40.155Z,15.87
2023-05-09T08:49:26.899Z,15.87
2023-05-09T08:52:13.899Z,15.83
2023-05-09T08:55:06.687Z,16.05
2023-05-09T08:57:52.863Z,15.97
2023-05-09T09:00:39.553Z,16.08
2023-05-09T09:03:26.473Z,15.97
2023-05-09T09:06:13.448Z,15.83
2023-05-09T09:09:00.101Z,15.81
2023-05-09T09:11:47.653Z,15.92
2023-05-09T09:14:36.988Z,15.78
2023-05-09T09:17:29.181Z,15.87
2023-05-09T09:20:16.661Z,15.81
2023-05-09T09:23:05.642Z,15.84
2023-05-09T09:25:59.769Z,15.97
2023-05-09T09:28:47.151Z,15.87
2023-05-09T09:31:33.438Z,16.03
2023-05-09T09:34:21.618Z,16.12
2023-05-09T09:37:08.202Z,16.03
2023-05-09T09:39:55.853Z,16.07
2023-05-09T09:42:48.569Z,16.13
2023-05-09T09:45:36.803Z,16.07
2023-05-09T09:48:26.979Z,16.32
2023-05-09T09:51:13.143Z,16.38
2023-05-09T09:54:02.657Z,16.32
2023-05-09T09:56:56.722Z,16.30
2023-05-09T09:59:58.658Z,16.02
2023-05-09T10:02:53.031Z,16.15
2023-05-09T10:05:40.942Z,16.27
2023-05-09T10:08:27.797Z,16.23
2023-05-09T10:11:14.565Z,16.27
2023-05-09T10:14:00.895Z,16.11
2023-05-09T10:16:48.775Z,16.13
2023-05-09T10:19:36.215Z,16.22
2023-05-09T10:22:22.592Z,16.29
2023-05-09T10:25:15.094Z,16.30
2023-05-09T10:28:02.045Z,16.26
2023-05-09T10:31:01.853Z,16.40
2023-05-09T10:33:49.104Z,16.55
2023-05-09T10:36:36.591Z,16.58
2023-05-09T10:39:23.356Z,16.51
2023-05-09T10:42:13.943Z,16.43
2023-05-09T10:45:00.325Z,16.52
2023-05-09T10:47:50.061Z,16.44
2023-05-09T10:50:38.091Z,16.44
2023-05-09T10:53:24.917Z,16.64
2023-05-09T10:56:27.155Z,16.43
2023-05-09T10:59:40.549Z,16.51
2023-05-09T11:02:29.614Z,16.43
2023-05-09T11:05:17.456Z,16.31
2023-05-09T11:08:23.697Z,16.29
2023-05-09T11:11:24.619Z,16.21
2023-05-09T11:14:29.545Z,16.05
2023-05-09T11:17:29.226Z,16.19
2023-05-09T11:20:14.753Z,16.18
2023-05-09T11:23:01.553Z,16.14
2023-05-09T11:25:48.495Z,16.15
2023-05-09T11:28:38.762Z,15.87
2023-05-09T11:31:25.153Z,16.05
2023-05-09T11:34:11.742Z,16.07
2023-05-09T11:37:09.736Z,16.13
2023-05-09T11:40:05.775Z,16.13
2023-05-09T11:42:58.277Z,16.10
2023-05-09T11:45:46.540Z,16.02
2023-05-09T11:48:40.030Z,16.02
2023-05-09T11:51:26.962Z,15.80
2023-05-09T11:54:15.126Z,15.73
2023-05-09T11:57:01.382Z,15.94
2023-05-09T11:59:48.366Z,15.89
2023-05-09T12:02:35.493Z,15.98
2023-05-09T12:05:23.090Z,16.02
2023-05-09T12:08:12.083Z,15.89
2023-05-09T12:11:09.049Z,16.06
2023-05-09T12:13:55.502Z,16.00
2023-05-09T12:16:48.213Z,15.96
2023-05-09T12:19:37.352Z,16.00
2023-05-09T12:22:25.891Z,16.06
2023-05-09T12:25:13.406Z,16.12
2023-05-09T12:28:02.180Z,16.18
2023-05-09T12:30:49.977Z,16.13
2023-05-09T12:33:39.344Z,15.89
2023-05-09T12:36:26.450Z,16.08
2023-05-09T12:39:12.455Z,16.08
2023-05-09T12:42:02.058Z,16.22
2023-05-09T12:44:50.059Z,16.24
2023-05-09T12:47:37.335Z,16.16
2023-05-09T12:50:32.393Z,16.12
2023-05-09T12:53:29.478Z,16.16
2023-05-09T12:56:17.979Z,16.12
2023-05-09T12:59:04.426Z,16.17
2023-05-09T13:01:58.456Z,16.23
2023-05-09T13:04:44.760Z,16.16
2023-05-09T13:07:58.816Z,16.18
2023-05-09T13:10:45.224Z,15.94
2023-05-09T13:13:34.994Z,16.21
2023-05-09T13:16:21.297Z,16.00
2023-05-09T13:19:08.575Z,16.14
2023-05-09T13:21:58.013Z,16.09
2023-05-09T13:24:45.001Z,16.15
2023-05-09T13:27:33.082Z,15.88
2023-05-09T13:30:19.639Z,16.06
2023-05-09T13:33:23.841Z,16.06
2023-05-09T13:36:10.386Z,16.05
2023-05-09T13:38:56.569Z,16.20
2023-05-09T13:41:42.788Z,16.18
2023-05-09T13:44:29.297Z,16.21
2023-05-09T13:47:14.785Z,16.12
2023-05-09T13:50:01.194Z,16.13
2023-05-09T13:52:47.692Z,16.09
2023-05-09T13:55:35.283Z,16.03
2023-05-09T13:58:21.487Z,16.07
2023-05-09T14:01:07.889Z,15.92
2023-05-09T14:03:54.293Z,16.09
2023-05-09T14:06:40.774Z,16.14
2023-05-09T14:09:28.472Z,16.21
2023-05-09T14:12:15.473Z,15.97
2023-05-09T14:15:02.438Z,16.10
2023-05-09T14:17:49.109Z,16.04
2023-05-09T14:20:35.571Z,16.16
2023-05-09T14:23:22.540Z,16.07
2023-05-09T14:26:08.649Z,16.04
2023-05-09T14:28:54.883Z,16.04
2023-05-09T14:31:41.356Z,16.14
2023-05-09T14:34:27.510Z,15.94
2023-05-09T14:37:16.353Z,16.15
2023-05-09T14:40:05.718Z,16.23
2023-05-09T14:42:51.781Z,16.17
2023-05-09T14:45:37.863Z,16.12
2023-05-09T14:48:24.150Z,16.12
2023-05-09T14:51:10.308Z,16.24
2023-05-09T14:53:56.205Z,16.13
2023-05-09T14:56:42.893Z,16.13
2023-05-09T14:59:28.734Z,16.05
2023-05-09T15:02:15.365Z,16.03
2023-05-09T15:05:01.294Z,16.03
2023-05-09T15:07:47.624Z,16.05
2023-05-09T15:10:35.225Z,16.06
2023-05-09T15:13:21.850Z,16.05
2023-05-09T15:16:08.954Z,15.96
2023-05-09T15:18:55.644Z,15.81
2023-05-09T15:21:44.366Z,16.02
2023-05-09T15:24:30.858Z,16.03
2023-05-09T15:27:17.111Z,16.09
2023-05-09T15:30:06.097Z,16.15
2023-05-09T15:32:53.453Z,16.15
2023-05-09T15:35:44.275Z,16.07
2023-05-09T15:38:30.528Z,15.99
2023-05-09T15:41:17.404Z,16.08
2023-05-09T15:44:03.685Z,15.93
2023-05-09T15:46:53.174Z,16.01
2023-05-09T15:49:40.167Z,15.96
2023-05-09T15:52:27.899Z,15.83
2023-05-09T15:55:14.495Z,15.94
2023-05-09T15:58:00.865Z,16.00
2023-05-09T16:00:46.729Z,15.82
2023-05-09T16:03:32.882Z,16.01
2023-05-09T16:06:19.243Z,15.84
2023-05-09T16:09:07.439Z,15.86
2023-05-09T16:11:54.315Z,15.99
2023-05-09T16:14:41.062Z,15.56
2023-05-09T16:17:27.342Z,15.90
2023-05-09T16:20:14.497Z,15.82
2023-05-09T16:23:00.874Z,15.77
2023-05-09T16:25:50.024Z,15.77
2023-05-09T16:28:36.325Z,15.78
2023-05-09T16:31:26.496Z,15.67
2023-05-09T16:34:13.363Z,15.71
2023-05-09T16:37:00.179Z,15.70
2023-05-09T16:39:47.387Z,15.69
2023-05-09T16:42:33.469Z,15.69
2023-05-09T16:45:19.959Z,15.65
2023-05-09T16:48:06.863Z,15.74
2023-05-09T16:50:53.944Z,15.68
2023-05-09T16:53:41.268Z,15.69
2023-05-09T16:56:28.248Z,15.60
2023-05-09T16:59:15.757Z,15.57
2023-05-09T17:02:02.403Z,15.57
2023-05-09T17:04:48.854Z,15.51
2023-05-09T17:07:34.789Z,15.41
2023-05-09T17:10:22.143Z,15.40
2023-05-09T17:13:09.041Z,15.42
2023-05-09T17:15:55.222Z,15.40
2023-05-09T17:18:46.058Z,15.34
2023-05-09T17:21:35.306Z,15.27
2023-05-09T17:24:22.086Z,15.25
2023-05-09T17:27:09.921Z,15.14
2023-05-09T17:29:56.098Z,15.02
2023-05-09T17:32:43.241Z,15.06
2023-05-09T17:35:30.481Z,14.97
2023-05-09T17:38:17.481Z,15.21
2023-05-09T17:41:04.215Z,16.06
2023-05-09T17:43:51.959Z,16.14
2023-05-09T17:46:38.465Z,15.52
2023-05-09T17:49:25.262Z,15.41
2023-05-09T17:52:11.320Z,15.04
2023-05-09T17:54:57.402Z,14.88
2023-05-09T17:57:43.754Z,14.78
2023-05-09T18:00:30.077Z,14.64
2023-05-09T18:03:16.429Z,14.53
2023-05-09T18:06:02.803Z,14.35
2023-05-09T18:08:49.255Z,14.21
2023-05-09T18:11:35.369Z,14.13
2023-05-09T18:14:21.765Z,14.10
2023-05-09T18:17:08.126Z,14.00
2023-05-09T18:19:54.269Z,13.89
2023-05-09T18:22:40.921Z,13.75
2023-05-09T18:25:27.265Z,13.04
2023-05-09T18:28:13.568Z,13.44
2023-05-09T18:31:00.812Z,13.32
2023-05-09T18:33:47.545Z,13.00
2023-05-09T18:36:33.597Z,13.18
2023-05-09T18:39:20.030Z,13.08
2023-05-09T18:42:06.682Z,12.94
2023-05-09T18:44:53.522Z,12.90
2023-05-09T18:47:40.204Z,12.77
2023-05-09T18:50:27.184Z,12.44
2023-05-09T18:53:13.876Z,12.58
2023-05-09T18:56:01.691Z,12.61
2023-05-09T18:58:50.345Z,12.37
2023-05-09T19:01:38.096Z,12.30
2023-05-09T19:04:25.553Z,12.34
2023-05-09T19:07:13.584Z,12.29
2023-05-09T19:10:01.281Z,12.22
2023-05-09T19:12:49.297Z,12.08
2023-05-09T19:15:35.759Z,12.07
2023-05-09T19:18:22.358Z,11.82
2023-05-09T19:24:13.168Z,11.88
2023-05-09T19:26:59.843Z,11.67
2023-05-09T19:29:47.503Z,11.65
2023-05-09T19:32:36.315Z,11.65
2023-05-09T19:35:23.015Z,11.62
2023-05-09T19:38:10.963Z,11.68
2023-05-09T19:40:57.312Z,11.57
2023-05-09T19:43:43.809Z,11.51
2023-05-09T19:46:31.000Z,11.33
2023-05-09T19:49:17.989Z,11.51
2023-05-09T19:52:05.108Z,11.42
2023-05-09T19:54:51.621Z,11.26
2023-05-09T19:57:38.034Z,11.47
2023-05-09T20:00:24.288Z,11.31
2023-05-09T20:03:11.079Z,11.36
2023-05-09T20:09:01.631Z,11.37
2023-05-09T20:11:48.540Z,11.34
2023-05-09T20:14:34.764Z,11.33
2023-05-09T20:17:20.719Z,11.19
2023-05-09T20:20:08.320Z,11.14
2023-05-09T20:22:56.880Z,11.21
2023-05-09T20:25:43.319Z,11.16
2023-05-09T20:28:29.836Z,11.12
2023-05-09T20:31:16.090Z,10.96
2023-05-09T20:34:02.187Z,11.03
2023-05-09T20:36:52.164Z,10.98
2023-05-09T20:39:38.590Z,10.91
2023-05-09T20:42:25.967Z,10.92
2023-05-09T20:45:11.948Z,10.84
2023-05-09T20:47:59.146Z,10.84
2023-05-09T20:50:45.262Z,10.79
2023-05-09T20:53:32.507Z,10.74
2023-05-09T20:56:19.565Z,10.64
2023-05-09T20:59:06.022Z,10.58
2023-05-09T21:01:53.211Z,10.58
2023-05-09T21:04:40.090Z,10.47
2023-05-09T21:07:26.383Z,10.42
2023-05-09T21:10:13.475Z,10.37
2023-05-09T21:13:02.337Z,10.31
2023-05-09T21:15:50.538Z,10.30
2023-05-09T21:18:36.905Z,10.27
2023-05-09T21:21:23.489Z,10.20
2023-05-09T21:24:09.884Z,10.14
2023-05-09T21:26:56.135Z,10.14
2023-05-09T21:29:42.382Z,10.05
2023-05-09T21:32:28.862Z,10.01
2023-05-09T21:35:15.430Z,10.07
2023-05-09T21:38:01.328Z,10.02
2023-05-09T21:40:47.238Z,9.86
2023-05-09T21:43:33.552Z,9.90
2023-05-09T21:46:19.281Z,9.68
2023-05-09T21:49:05.586Z,9.74
2023-05-09T21:51:51.318Z,9.67
2023-05-09T21:54:37.505Z,9.62
2023-05-09T21:57:23.029Z,9.68
2023-05-09T22:00:14.303Z,9.67
2023-05-09T22:03:01.202Z,9.44
2023-05-09T22:05:47.172Z,9.54
2023-05-09T22:08:32.856Z,9.54
2023-05-09T22:11:19.446Z,9.54
2023-05-09T22:14:05.116Z,9.47
2023-05-09T22:16:51.560Z,9.37
2023-05-09T22:19:38.299Z,9.34
2023-05-09T22:22:24.844Z,9.28
2023-05-09T22:25:10.522Z,9.24
2023-05-09T22:27:56.896Z,9.14
2023-05-09T22:30:42.897Z,9.05
2023-05-09T22:33:29.253Z,9.08
2023-05-09T22:36:14.883Z,9.05
2023-05-09T22:39:01.524Z,9.02
2023-05-09T22:41:48.013Z,8.93
2023-05-09T22:44:34.313Z,8.91
2023-05-09T22:47:22.436Z,8.93
2023-05-09T22:50:09.388Z,8.90
2023-05-09T22:52:55.107Z,8.72
2023-05-09T22:55:41.459Z,8.77
2023-05-09T22:58:27.679Z,8.72
2023-05-09T23:01:13.543Z,8.83
2023-05-09T23:04:01.192Z,8.84
2023-05-09T23:06:47.404Z,8.77
2023-05-09T23:09:33.426Z,8.69
2023-05-09T23:12:19.971Z,8.82
2023-05-09T23:15:07.537Z,8.75
2023-05-09T23:17:53.936Z,8.78
2023-05-09T23:20:40.002Z,8.66
2023-05-09T23:23:25.989Z,8.59
2023-05-09T23:26:11.740Z,8.68
2023-05-09T23:28:58.445Z,8.68
2023-05-09T23:31:44.219Z,8.66
2023-05-09T23:34:31.088Z,8.64
2023-05-09T23:37:17.367Z,8.57
2023-05-09T23:40:04.619Z,8.66
2023-05-09T23:42:50.115Z,8.43
2023-05-09T23:45:36.290Z,8.65
2023-05-09T23:48:22.060Z,8.63
2023-05-09T23:51:08.375Z,8.58
2023-05-09T23:53:56.199Z,8.36
2023-05-09T23:56:42.464Z,8.46
2023-05-09T23:59:27.930Z,8.48
